Time;durP1;ratioP1;P1;durP2;ratioP2;P2;SDS_P1;SDS_P2;PMS_P1;PMS_P2;Temp;Humidity;BMP_temperature;BMP_pressure;BME280_temperature;BME280_humidity;BME280_pressure;Samples;Min_cycle;Max_cycle;Signal;HPM_P1;HPM_P2
2022/06/04 00:00:47;;;;;;;12.93;5.32;;;11.90;86.30;;;;;;5050592;28;20032;-43
2022/06/04 00:03:13;;;;;;;14.13;6.22;;;11.90;86.30;;;;;;5043164;28;20111;-44
2022/06/04 00:05:45;;;;;;;12.35;6.57;;;11.90;86.30;;;;;;5051762;28;20063;-44
2022/06/04 00:08:11;;;;;;;12.88;5.13;;;12.00;86.40;;;;;;5050242;28;20033;-42
2022/06/04 00:16:18;;;;;;;9.27;5.45;;;12.00;85.70;;;;;;5032440;28;20040;-43
2022/06/04 00:18:44;;;;;;;8.13;4.93;;;12.00;85.50;;;;;;5031800;28;20091;-43
2022/06/04 00:21:11;;;;;;;9.93;5.18;;;11.90;85.30;;;;;;5015703;28;20049;-44
2022/06/04 00:23:37;;;;;;;7.75;4.53;;;11.90;85.50;;;;;;5032376;28;20079;-43
2022/06/04 00:26:07;;;;;;;8.15;4.35;;;11.90;85.50;;;;;;5044978;28;20048;-44
2022/06/04 00:28:33;;;;;;;8.63;4.70;;;12.00;85.50;;;;;;5049876;28;20041;-44
2022/06/04 00:31:01;;;;;;;11.15;5.45;;;12.00;85.60;;;;;;5050096;28;20044;-43
2022/06/04 00:33:27;;;;;;;12.38;5.07;;;12.00;85.60;;;;;;5045441;28;20030;-43
2022/06/04 00:35:55;;;;;;;9.75;5.22;;;12.10;85.70;;;;;;5042968;28;20056;-43
2022/06/04 00:38:23;;;;;;;13.02;5.32;;;12.10;85.60;;;;;;5051321;28;20024;-43
2022/06/04 00:41:08;;;;;;;10.25;5.88;;;12.10;85.60;;;;;;5043996;28;20096;-43
2022/06/04 00:43:56;;;;;;;9.57;5.50;;;12.20;85.60;;;;;;5046167;28;20033;-43
2022/06/04 00:46:40;;;;;;;8.27;4.80;;;12.10;85.50;;;;;;5043833;28;20446;-45
2022/06/04 00:49:18;;;;;;;9.93;4.68;;;12.10;85.60;;;;;;5031300;28;20034;-43
2022/06/04 00:51:47;;;;;;;7.55;5.00;;;12.10;85.50;;;;;;5031747;28;20037;-43
2022/06/04 00:54:13;;;;;;;8.63;4.68;;;12.10;85.50;;;;;;5027577;28;20062;-44
2022/06/04 00:56:51;;;;;;;6.95;4.63;;;12.00;85.40;;;;;;5030507;28;20025;-43
2022/06/04 00:59:53;;;;;;;7.65;4.30;;;11.90;85.20;;;;;;5041261;28;20020;-44
2022/06/04 01:02:42;;;;;;;11.65;4.28;;;11.90;85.30;;;;;;5044946;28;20043;-44
2022/06/04 01:05:47;;;;;;;8.07;4.38;;;11.90;85.30;;;;;;5051563;28;20032;-43
2022/06/04 01:08:40;;;;;;;8.73;4.20;;;11.90;85.40;;;;;;5041254;28;20029;-43
2022/06/04 01:11:30;;;;;;;8.55;5.57;;;11.90;85.50;;;;;;5043885;28;20026;-43
2022/06/04 01:14:10;;;;;;;;;;;11.90;85.60;;;;;;5036660;28;20559;-44
2022/06/04 01:16:57;;;;;;;8.88;4.53;;;11.90;85.80;;;;;;5034501;28;19938;-43
2022/06/04 01:19:45;;;;;;;7.60;3.85;;;12.00;85.50;;;;;;5035118;28;20083;-44
2022/06/04 01:22:29;;;;;;;9.60;4.45;;;11.90;85.40;;;;;;5038609;28;20430;-44
2022/06/04 01:25:04;;;;;;;10.10;4.35;;;12.00;85.30;;;;;;5042194;28;20033;-48
2022/06/04 01:27:39;;;;;;;6.50;4.72;;;12.00;85.30;;;;;;5039540;28;20029;-46
2022/06/04 01:30:14;;;;;;;9.07;4.85;;;12.00;85.50;;;;;;5051312;28;20033;-44
2022/06/04 01:32:54;;;;;;;6.90;4.85;;;12.00;85.30;;;;;;5047895;28;20458;-44
2022/06/04 01:35:28;;;;;;;10.90;4.55;;;12.00;85.20;;;;;;5034341;28;20482;-44
2022/06/04 01:38:12;;;;;;;9.60;4.63;;;11.90;85.10;;;;;;5034695;28;20043;-44
2022/06/04 01:41:03;;;;;;;8.40;4.68;;;12.00;85.20;;;;;;5049480;28;20724;-45
2022/06/04 01:43:34;;;;;;;7.30;4.63;;;11.90;85.10;;;;;;5043314;28;20369;-43
2022/06/04 01:46:08;;;;;;;7.25;4.22;;;11.90;85.30;;;;;;5029518;28;20033;-43
2022/06/04 01:48:38;;;;;;;5.55;3.92;;;11.90;85.20;;;;;;5036294;28;20120;-44
2022/06/04 01:51:06;;;;;;;6.28;4.03;;;11.90;85.10;;;;;;5049239;28;20033;-44
2022/06/04 01:53:36;;;;;;;8.18;4.00;;;11.90;85.20;;;;;;5044328;28;20049;-44
2022/06/04 01:56:09;;;;;;;;;;;11.90;85.10;;;;;;5030899;28;20091;-44
2022/06/04 01:59:14;;;;;;;6.30;4.22;;;11.90;85.30;;;;;;5032139;28;19920;-44
2022/06/04 02:01:41;;;;;;;7.38;4.22;;;11.90;85.50;;;;;;5014099;28;20240;-46
2022/06/04 02:04:23;;;;;;;6.32;4.28;;;11.90;85.50;;;;;;5029460;28;20021;-43
2022/06/04 02:09:45;;;;;;;6.63;3.92;;;11.90;85.40;;;;;;5031027;28;20041;-44
2022/06/04 02:12:13;;;;;;;8.60;5.10;;;11.90;85.50;;;;;;5023435;28;20454;-43
2022/06/04 02:14:40;;;;;;;6.05;4.15;;;11.90;85.40;;;;;;5031706;28;20033;-46
2022/06/04 02:17:13;;;;;;;6.35;4.47;;;11.90;85.00;;;;;;5038817;28;20029;-44
2022/06/04 02:19:40;;;;;;;6.63;3.75;;;11.90;84.80;;;;;;5032798;28;20025;-46
2022/06/04 02:22:05;;;;;;;6.53;3.80;;;11.90;84.50;;;;;;5039690;28;20025;-45
2022/06/04 02:24:31;;;;;;;7.15;4.07;;;11.90;84.60;;;;;;5039530;28;20452;-46
2022/06/04 02:27:01;;;;;;;8.23;4.75;;;11.90;84.60;;;;;;5037709;28;20033;-45
2022/06/04 02:29:27;;;;;;;9.48;4.63;;;11.90;84.60;;;;;;5050066;28;20036;-43
2022/06/04 02:32:17;;;;;;;7.70;5.10;;;11.90;84.80;;;;;;5045806;28;20037;-46
2022/06/04 02:34:51;;;;;;;;;;;11.90;85.00;;;;;;5036537;28;20460;-46
2022/06/04 02:37:27;;;;;;;8.02;4.40;;;11.90;84.70;;;;;;5039550;28;19955;-43
2022/06/04 02:40:01;;;;;;;5.63;4.10;;;11.90;84.40;;;;;;5049698;28;20718;-44
2022/06/04 02:42:33;;;;;;;6.90;4.57;;;11.90;84.40;;;;;;5041471;28;20397;-43
2022/06/04 02:45:06;;;;;;;6.28;4.25;;;11.90;84.30;;;;;;5049900;28;20442;-44
2022/06/04 02:47:55;;;;;;;6.70;4.85;;;11.90;84.40;;;;;;5045547;28;20032;-47
2022/06/04 02:50:48;;;;;;;7.05;4.15;;;11.90;84.60;;;;;;5009958;28;20041;-43
2022/06/04 02:53:16;;;;;;;6.60;3.97;;;11.80;84.50;;;;;;5040829;28;20077;-44
2022/06/04 02:56:09;;;;;;;7.68;5.10;;;11.90;84.60;;;;;;5008242;28;20077;-44
2022/06/04 02:58:38;;;;;;;7.85;5.10;;;11.90;84.70;;;;;;4999613;28;20041;-45
2022/06/04 03:01:08;;;;;;;8.60;4.70;;;11.80;84.80;;;;;;5019313;28;20033;-44
2022/06/04 03:03:34;;;;;;;10.75;4.32;;;11.90;84.70;;;;;;5013217;28;20014;-44
2022/06/04 03:06:02;;;;;;;5.97;4.50;;;11.90;84.50;;;;;;5009281;28;20351;-44
2022/06/04 03:08:37;;;;;;;6.50;4.47;;;11.90;84.60;;;;;;5009483;28;20038;-43
2022/06/04 03:11:06;;;;;;;8.55;5.05;;;11.90;84.70;;;;;;4991029;28;20026;-44
2022/06/04 03:13:32;;;;;;;7.22;4.68;;;11.90;84.70;;;;;;4999066;28;20077;-45
2022/06/04 03:16:00;;;;;;;6.53;4.57;;;11.90;84.50;;;;;;5008789;28;20076;-45
2022/06/04 03:18:28;;;;;;;6.90;4.93;;;11.90;84.50;;;;;;5000907;28;20109;-44
2022/06/04 03:20:53;;;;;;;8.07;5.40;;;11.90;84.70;;;;;;5002242;28;20332;-47
2022/06/04 03:23:19;;;;;;;7.60;4.40;;;11.90;85.00;;;;;;5002027;28;20031;-45
2022/06/04 03:25:45;;;;;;;7.68;4.57;;;12.00;84.80;;;;;;5006266;28;20107;-45
2022/06/04 03:28:11;;;;;;;7.47;5.45;;;12.00;84.80;;;;;;4995137;28;20030;-46
2022/06/04 03:30:38;;;;;;;5.28;4.25;;;12.00;84.70;;;;;;4989935;28;20034;-43
2022/06/04 03:33:07;;;;;;;6.93;4.50;;;12.00;84.70;;;;;;5010351;28;20026;-47
2022/06/04 03:35:33;;;;;;;9.43;4.57;;;12.00;84.80;;;;;;5018603;28;20068;-47
2022/06/04 03:37:58;;;;;;;7.45;4.80;;;12.00;84.70;;;;;;5016835;28;20449;-45
2022/06/04 03:40:24;;;;;;;11.32;5.32;;;12.00;84.80;;;;;;5017631;28;20040;-45
2022/06/04 03:42:50;;;;;;;10.00;4.85;;;12.10;84.80;;;;;;5003955;28;20093;-46
2022/06/04 03:45:16;;;;;;;9.00;5.68;;;12.10;84.60;;;;;;4995594;28;20117;-50
2022/06/04 03:47:42;;;;;;;7.85;4.85;;;12.20;84.50;;;;;;5007749;28;20049;-43
2022/06/04 03:50:16;;;;;;;7.28;4.97;;;12.20;84.10;;;;;;5006748;28;20113;-45
2022/06/04 03:52:43;;;;;;;7.18;4.75;;;12.20;84.10;;;;;;5008819;28;20033;-45
2022/06/04 03:55:10;;;;;;;9.55;5.35;;;12.20;84.10;;;;;;5006812;28;20053;-49
2022/06/04 03:57:38;;;;;;;6.32;4.43;;;12.30;84.20;;;;;;5017535;28;20362;-46
2022/06/04 04:00:19;;;;;;;6.72;4.90;;;12.30;84.10;;;;;;5045148;28;20021;-45
2022/06/04 04:02:55;;;;;;;9.00;5.07;;;12.30;83.70;;;;;;5035936;28;20116;-44
2022/06/04 04:05:25;;;;;;;6.00;4.80;;;12.30;83.80;;;;;;5041364;28;20113;-45
2022/06/04 04:07:51;;;;;;;9.75;4.53;;;12.20;83.70;;;;;;5027429;28;20037;-45
2022/06/04 04:10:18;;;;;;;7.28;5.07;;;12.30;83.50;;;;;;5028927;28;20033;-44
2022/06/04 04:12:44;;;;;;;7.43;5.15;;;12.30;83.30;;;;;;5027070;28;20044;-46
2022/06/04 04:15:11;;;;;;;5.95;4.43;;;12.40;83.30;;;;;;5028083;28;20079;-47
2022/06/04 04:17:39;;;;;;;7.43;5.20;;;12.40;83.50;;;;;;5028533;28;20036;-45
2022/06/04 04:20:07;;;;;;;8.32;5.45;;;12.40;83.50;;;;;;5028575;28;20469;-45
2022/06/04 04:22:32;;;;;;;6.85;4.53;;;12.40;83.40;;;;;;5026724;28;20061;-44
2022/06/04 04:24:58;;;;;;;8.40;4.55;;;12.40;82.90;;;;;;5009450;28;20034;-45
2022/06/04 04:27:24;;;;;;;6.97;4.60;;;12.40;83.00;;;;;;5008073;28;20022;-45
2022/06/04 04:29:49;;;;;;;7.57;4.88;;;12.50;83.10;;;;;;5028413;28;20115;-44
2022/06/04 04:32:15;;;;;;;7.65;4.35;;;12.50;82.90;;;;;;5028306;28;20450;-48
2022/06/04 04:34:41;;;;;;;6.60;4.63;;;12.50;82.40;;;;;;5043750;28;20050;-45
2022/06/04 04:37:09;;;;;;;7.90;5.00;;;12.60;82.80;;;;;;5042193;28;20057;-44
2022/06/04 04:39:34;;;;;;;11.80;4.90;;;12.70;82.80;;;;;;5024892;28;20641;-46
2022/06/04 04:42:00;;;;;;;6.53;4.38;;;12.70;82.20;;;;;;5028573;28;20025;-45
2022/06/04 04:44:26;;;;;;;7.05;4.53;;;12.70;81.90;;;;;;5030745;28;20064;-46
2022/06/04 04:46:52;;;;;;;5.93;3.92;;;12.90;81.70;;;;;;5030890;28;20029;-45
2022/06/04 04:49:19;;;;;;;6.30;4.93;;;12.90;81.60;;;;;;5031851;28;20021;-45
2022/06/04 04:51:44;;;;;;;5.55;4.30;;;12.90;81.60;;;;;;5029726;28;20029;-47
2022/06/04 04:54:10;;;;;;;6.70;4.72;;;12.90;81.50;;;;;;5030089;28;20088;-45
2022/06/04 04:56:39;;;;;;;9.38;4.68;;;12.90;81.60;;;;;;5030893;28;20021;-46
2022/06/04 04:59:05;;;;;;;9.43;4.83;;;12.90;81.60;;;;;;5032101;28;20021;-46
2022/06/04 05:01:33;;;;;;;6.95;4.63;;;12.90;81.40;;;;;;5027062;28;20334;-45
2022/06/04 05:04:01;;;;;;;7.03;4.88;;;12.90;81.50;;;;;;5030977;28;20013;-47
2022/06/04 05:06:27;;;;;;;7.22;4.82;;;13.00;81.20;;;;;;5024164;28;20033;-45
2022/06/04 05:08:52;;;;;;;6.30;4.28;;;13.10;80.90;;;;;;5031701;28;20036;-44
2022/06/04 05:11:24;;;;;;;5.68;4.47;;;13.10;80.20;;;;;;5030623;28;20417;-44
2022/06/04 05:13:50;;;;;;;6.70;4.47;;;13.20;80.30;;;;;;5031157;28;20034;-44
2022/06/04 05:16:18;;;;;;;5.32;3.95;;;13.10;80.30;;;;;;5030940;28;20079;-46
2022/06/04 05:18:44;;;;;;;4.95;4.07;;;13.30;80.40;;;;;;5030582;28;20036;-46
2022/06/04 05:21:47;;;;;;;6.00;3.58;;;13.40;79.50;;;;;;5030350;28;20496;-46
2022/06/04 05:24:20;;;;;;;5.05;3.53;;;13.40;78.60;;;;;;5025742;28;20115;-45
2022/06/04 05:26:46;;;;;;;7.55;4.70;;;13.40;79.20;;;;;;5030566;28;20124;-47
2022/06/04 05:29:12;;;;;;;7.45;4.30;;;13.40;80.00;;;;;;5031188;28;20085;-46
2022/06/04 05:31:39;;;;;;;7.35;4.15;;;13.60;80.10;;;;;;5029675;28;20045;-48
2022/06/04 05:34:06;;;;;;;5.20;3.47;;;13.80;79.60;;;;;;5031068;28;20108;-48
2022/06/04 05:36:31;;;;;;;8.07;4.32;;;13.80;78.50;;;;;;5009820;28;20419;-45
2022/06/04 05:38:57;;;;;;;8.27;4.00;;;13.70;78.20;;;;;;5025502;28;20116;-46
2022/06/04 05:41:23;;;;;;;6.50;4.10;;;13.70;78.30;;;;;;5032292;28;20474;-45
2022/06/04 05:43:53;;;;;;;5.50;4.15;;;13.70;78.50;;;;;;5034717;28;20029;-46
2022/06/04 05:46:20;;;;;;;7.78;3.65;;;13.80;78.70;;;;;;5043681;28;20047;-46
2022/06/04 05:48:46;;;;;;;6.68;4.13;;;13.90;78.20;;;;;;5032612;28;20032;-45
2022/06/04 05:51:15;;;;;;;7.38;4.28;;;13.90;78.20;;;;;;5035746;28;20030;-48
2022/06/04 05:53:44;;;;;;;6.50;4.50;;;13.90;78.40;;;;;;5030003;28;20166;-45
2022/06/04 05:56:19;;;;;;;8.55;3.97;;;14.10;77.80;;;;;;5030586;28;20296;-45
2022/06/04 05:58:48;;;;;;;6.00;3.90;;;14.10;77.70;;;;;;5016590;28;20026;-46
2022/06/04 06:01:15;;;;;;;6.93;3.90;;;14.00;77.00;;;;;;5030206;28;20025;-44
2022/06/04 06:03:42;;;;;;;4.22;3.40;;;13.80;77.20;;;;;;5028587;28;20036;-44
2022/06/04 06:06:34;;;;;;;7.97;3.95;;;13.80;77.30;;;;;;5029271;28;20021;-45
2022/06/04 06:09:04;;;;;;;6.03;3.85;;;13.80;77.80;;;;;;5027004;28;20275;-45
2022/06/04 06:11:30;;;;;;;6.30;3.95;;;13.80;77.80;;;;;;5040813;28;20109;-49
2022/06/04 06:13:56;;;;;;;11.35;4.40;;;13.80;77.90;;;;;;5030277;28;20055;-47
2022/06/04 06:16:25;;;;;;;7.10;4.45;;;13.90;78.40;;;;;;5028849;28;20034;-47
2022/06/04 06:18:51;;;;;;;6.45;3.63;;;13.90;78.70;;;;;;5029225;28;20044;-45
2022/06/04 06:21:23;;;;;;;6.25;3.75;;;14.00;78.00;;;;;;5028127;28;20104;-45
2022/06/04 06:23:51;;;;;;;6.63;3.80;;;13.90;77.90;;;;;;5029130;28;20418;-46
2022/06/04 06:26:20;;;;;;;4.72;3.80;;;14.00;77.90;;;;;;5029352;28;20061;-47
2022/06/04 06:28:46;;;;;;;8.85;4.00;;;14.00;78.00;;;;;;5018919;28;20037;-46
2022/06/04 06:31:15;;;;;;;4.93;3.50;;;14.00;78.30;;;;;;5029775;28;20026;-46
2022/06/04 06:33:41;;;;;;;5.78;4.28;;;14.30;77.60;;;;;;5028881;28;20040;-45
2022/06/04 06:36:11;;;;;;;7.30;4.35;;;14.60;77.60;;;;;;5027800;28;20045;-46
2022/06/04 06:38:37;;;;;;;5.28;3.88;;;14.70;76.80;;;;;;5029372;28;20029;-45
2022/06/04 06:41:03;;;;;;;8.20;4.05;;;14.90;76.10;;;;;;5028986;28;20037;-45
2022/06/04 06:43:46;;;;;;;6.20;3.90;;;14.90;75.90;;;;;;5031157;28;20029;-46
2022/06/04 06:46:19;;;;;;;5.88;3.80;;;14.80;75.80;;;;;;5046289;28;20108;-46
2022/06/04 06:48:47;;;;;;;9.30;5.07;;;14.90;76.50;;;;;;5049169;28;20480;-48
2022/06/04 06:51:38;;;;;;;6.25;4.13;;;15.00;76.40;;;;;;5039444;28;20037;-45
2022/06/04 06:54:06;;;;;;;7.30;3.65;;;15.20;75.50;;;;;;5020480;28;20042;-46
2022/06/04 06:56:34;;;;;;;6.45;3.97;;;15.20;75.50;;;;;;5026326;28;20044;-45
2022/06/04 06:59:01;;;;;;;5.03;3.05;;;15.30;74.70;;;;;;5036496;28;20020;-45
2022/06/04 07:01:27;;;;;;;5.22;3.58;;;15.20;74.10;;;;;;5033933;28;20040;-46
2022/06/04 07:03:55;;;;;;;6.03;3.10;;;15.40;72.70;;;;;;5029318;28;20461;-44
2022/06/04 07:06:48;;;;;;;7.90;2.70;;;15.40;72.60;;;;;;5039506;28;20041;-46
2022/06/04 07:09:17;;;;;;;5.47;2.67;;;15.80;71.80;;;;;;5023932;28;20034;-46
2022/06/04 07:11:43;;;;;;;4.75;2.78;;;15.90;70.50;;;;;;5034229;28;20029;-44
2022/06/04 07:14:11;;;;;;;4.78;3.35;;;16.10;69.90;;;;;;5049178;28;20025;-46
2022/06/04 07:16:37;;;;;;;4.65;2.67;;;16.00;70.50;;;;;;5032264;28;20095;-44
2022/06/04 07:19:04;;;;;;;3.95;2.67;;;15.80;70.20;;;;;;5028738;28;20064;-44
2022/06/04 07:21:29;;;;;;;7.78;2.80;;;16.00;69.50;;;;;;5026487;28;20029;-45
2022/06/04 07:23:58;;;;;;;4.82;2.53;;;16.40;69.50;;;;;;5027500;28;20037;-44
2022/06/04 07:26:25;;;;;;;5.72;2.40;;;16.90;67.50;;;;;;5028062;28;20053;-45
2022/06/04 07:28:51;;;;;;;3.47;2.47;;;17.40;66.00;;;;;;5027477;28;20025;-45
2022/06/04 07:31:17;;;;;;;3.10;2.15;;;17.90;65.00;;;;;;5027700;28;20059;-47
2022/06/04 07:33:43;;;;;;;4.28;2.20;;;18.00;63.00;;;;;;5027443;28;20366;-44
2022/06/04 07:36:18;;;;;;;4.50;2.08;;;17.90;62.70;;;;;;5027390;28;20049;-47
2022/06/04 07:38:45;;;;;;;5.45;2.15;;;18.60;61.50;;;;;;5025635;28;20041;-45
2022/06/04 07:41:43;;;;;;;2.85;1.90;;;19.30;59.60;;;;;;5036965;28;20036;-45
2022/06/04 07:44:10;;;;;;;7.15;2.60;;;20.10;57.40;;;;;;5023130;28;20124;-46
2022/06/04 07:46:36;;;;;;;5.82;3.03;;;20.10;55.90;;;;;;5027698;28;20021;-45
2022/06/04 07:49:05;;;;;;;4.20;2.20;;;19.90;57.70;;;;;;5028780;28;20115;-45
2022/06/04 07:51:34;;;;;;;5.13;2.35;;;19.60;57.20;;;;;;5027859;28;20080;-45
2022/06/04 07:54:01;;;;;;;7.25;2.38;;;19.90;57.90;;;;;;5027720;28;20053;-46
2022/06/04 07:56:27;;;;;;;4.95;2.33;;;20.10;57.00;;;;;;5027444;28;20046;-45
2022/06/04 07:58:56;;;;;;;5.38;1.85;;;20.00;55.70;;;;;;5030419;28;20049;-45
2022/06/04 08:01:23;;;;;;;5.65;2.00;;;20.10;56.60;;;;;;5028116;28;20029;-45
2022/06/04 08:03:50;;;;;;;4.03;2.05;;;20.30;54.60;;;;;;5027995;28;20030;-44
2022/06/04 08:06:17;;;;;;;4.68;1.90;;;20.20;54.80;;;;;;5025753;28;20120;-45
2022/06/04 08:08:45;;;;;;;6.22;2.25;;;20.30;56.50;;;;;;5028335;28;20029;-44
2022/06/04 08:14:00;;;;;;;3.78;2.00;;;21.00;54.50;;;;;;5027145;28;20036;-45
2022/06/04 08:16:25;;;;;;;4.65;2.03;;;20.60;55.10;;;;;;5031379;28;20056;-47
2022/06/04 08:18:54;;;;;;;3.60;1.98;;;20.70;56.10;;;;;;5030218;28;20013;-45
2022/06/04 08:21:19;;;;;;;3.28;1.80;;;21.00;54.60;;;;;;5030336;28;20018;-46
2022/06/04 08:23:45;;;;;;;4.10;2.10;;;20.80;53.50;;;;;;5029356;28;20044;-44
2022/06/04 08:26:11;;;;;;;4.80;2.13;;;19.90;56.40;;;;;;5031769;28;20343;-47
2022/06/04 08:28:37;;;;;;;3.78;2.28;;;20.20;54.80;;;;;;5030497;28;20813;-44
2022/06/04 08:31:09;;;;;;;3.45;2.05;;;20.60;57.20;;;;;;5031381;28;20059;-45
2022/06/04 08:33:36;;;;;;;4.07;2.20;;;21.00;53.30;;;;;;5029660;28;20448;-46
2022/06/04 08:36:03;;;;;;;4.47;1.90;;;21.10;53.00;;;;;;5030448;28;20020;-46
2022/06/04 08:38:31;;;;;;;4.35;2.20;;;21.30;54.20;;;;;;5028358;28;20489;-45
2022/06/04 08:41:02;;;;;;;4.47;2.17;;;21.50;52.80;;;;;;5030686;28;20033;-46
2022/06/04 08:43:49;;;;;;;4.88;2.30;;;21.10;54.10;;;;;;5026521;28;20032;-45
2022/06/04 08:46:35;;;;;;;3.58;2.10;;;20.30;54.10;;;;;;5012191;28;20025;-44
2022/06/04 08:49:11;;;;;;;4.70;2.75;;;19.70;55.80;;;;;;5027541;28;20083;-46
2022/06/04 08:51:37;;;;;;;3.92;2.30;;;20.00;58.40;;;;;;5031986;28;20029;-45
2022/06/04 08:59:59;;;;;;;3.95;2.08;;;21.00;55.40;;;;;;5033789;28;20036;-46
2022/06/04 09:02:50;;;;;;;4.05;1.92;;;20.60;55.10;;;;;;5030697;28;20492;-46
2022/06/04 09:05:53;;;;;;;4.05;1.90;;;21.00;56.10;;;;;;5025857;28;20104;-47
2022/06/04 09:08:38;;;;;;;5.60;2.28;;;20.60;55.20;;;;;;5023650;28;20055;-45
2022/06/04 09:11:12;;;;;;;4.72;2.15;;;20.20;54.50;;;;;;5027767;28;20053;-47
2022/06/04 09:13:59;;;;;;;4.80;2.38;;;19.60;56.90;;;;;;5044012;28;20036;-47
2022/06/04 09:16:34;;;;;;;4.97;2.15;;;19.20;59.40;;;;;;5039108;28;20038;-45
2022/06/04 09:19:10;;;;;;;4.00;2.28;;;19.30;59.60;;;;;;5041784;28;20394;-44
2022/06/04 09:21:38;;;;;;;3.80;2.40;;;19.30;59.00;;;;;;5042326;28;20068;-44
2022/06/04 09:24:05;;;;;;;5.80;2.35;;;19.30;57.80;;;;;;5037535;28;20040;-45
2022/06/04 09:26:49;;;;;;;6.35;2.40;;;19.40;59.60;;;;;;5042521;28;20046;-45
2022/06/04 09:29:43;;;;;;;3.67;2.20;;;19.50;61.20;;;;;;5030270;28;20116;-45
2022/06/04 09:32:27;;;;;;;6.00;2.78;;;19.90;56.80;;;;;;5030459;28;20061;-46
2022/06/04 09:34:56;;;;;;;4.60;2.15;;;20.40;56.90;;;;;;5030513;28;20104;-46
2022/06/04 09:37:22;;;;;;;5.15;2.60;;;20.30;57.00;;;;;;5020996;28;20054;-46
2022/06/04 09:40:04;;;;;;;3.22;2.30;;;20.80;56.00;;;;;;5030980;28;20336;-48
2022/06/04 09:42:32;;;;;;;4.20;2.00;;;20.90;55.00;;;;;;5039363;28;20064;-49
2022/06/04 09:45:04;;;;;;;4.18;2.47;;;20.70;56.60;;;;;;5027797;28;20045;-51
2022/06/04 09:47:29;;;;;;;4.35;2.58;;;20.90;55.50;;;;;;5032581;28;20065;-49
2022/06/04 09:49:59;;;;;;;5.13;2.45;;;20.30;56.00;;;;;;5030717;28;20061;-45
2022/06/04 09:52:42;;;;;;;;;;;20.30;57.20;;;;;;5031459;28;20044;-48
2022/06/04 09:55:22;;;;;;;3.00;2.03;;;20.20;54.70;;;;;;5043345;28;20021;-48
2022/06/04 09:57:59;;;;;;;5.22;2.50;;;19.90;57.30;;;;;;5030104;28;20075;-46
2022/06/04 10:00:32;;;;;;;5.72;2.55;;;20.30;56.70;;;;;;5029753;28;20048;-46
2022/06/04 10:03:18;;;;;;;7.03;2.45;;;20.40;58.90;;;;;;5025226;28;20044;-47
2022/06/04 10:06:11;;;;;;;4.43;2.35;;;20.60;57.60;;;;;;5028269;28;20026;-48
2022/06/04 10:11:54;;;;;;;4.43;2.47;;;20.40;57.20;;;;;;5011801;28;20531;-48
2022/06/04 10:14:34;;;;;;;4.10;2.40;;;20.30;56.90;;;;;;5019443;28;20045;-46
2022/06/04 10:17:03;;;;;;;4.35;2.35;;;20.40;55.90;;;;;;5030056;28;20037;-46
2022/06/04 10:19:33;;;;;;;5.43;2.10;;;20.30;56.70;;;;;;5031854;28;20091;-46
2022/06/04 10:22:10;;;;;;;5.88;2.75;;;20.30;56.00;;;;;;5043571;28;20390;-46
2022/06/04 10:24:51;;;;;;;5.55;2.78;;;19.70;58.50;;;;;;5035364;28;20053;-46
2022/06/04 10:27:32;;;;;;;4.57;2.38;;;19.80;56.90;;;;;;5049305;28;20513;-46
2022/06/04 10:30:17;;;;;;;6.05;2.65;;;19.70;58.40;;;;;;5036951;28;20116;-45
2022/06/04 10:33:14;;;;;;;5.22;2.13;;;19.50;57.90;;;;;;5028672;28;20176;-45
2022/06/04 10:36:02;;;;;;;7.30;3.20;;;19.70;56.90;;;;;;5025935;28;20059;-47
2022/06/04 10:38:34;;;;;;;5.47;2.20;;;19.60;60.10;;;;;;5027100;28;20033;-46
2022/06/04 10:41:22;;;;;;;5.13;2.60;;;19.80;57.50;;;;;;5028858;28;20462;-47
2022/06/04 10:44:14;;;;;;;4.18;2.95;;;19.40;58.90;;;;;;5025683;28;20542;-45
2022/06/04 10:47:03;;;;;;;4.50;2.67;;;19.20;60.80;;;;;;5021964;28;20021;-47
2022/06/04 10:49:36;;;;;;;6.47;2.67;;;19.40;58.90;;;;;;5026494;28;20037;-47
2022/06/04 10:52:29;;;;;;;5.30;2.60;;;19.40;60.00;;;;;;5029994;28;20461;-46
2022/06/04 10:55:33;;;;;;;5.40;2.75;;;19.10;58.30;;;;;;5047961;28;20508;-46
2022/06/04 10:58:23;;;;;;;5.43;2.35;;;19.20;59.40;;;;;;5038390;28;20025;-47
2022/06/04 11:01:07;;;;;;;7.07;2.92;;;19.10;61.00;;;;;;5009789;28;20465;-45
2022/06/04 11:04:07;;;;;;;5.18;3.08;;;18.90;63.20;;;;;;5035032;28;20454;-45
2022/06/04 11:06:42;;;;;;;6.93;3.00;;;18.90;61.50;;;;;;5046725;28;20051;-45
2022/06/04 11:09:17;;;;;;;6.93;3.00;;;18.60;60.40;;;;;;5027467;28;20029;-45
2022/06/04 11:12:01;;;;;;;4.72;2.63;;;18.50;60.90;;;;;;5029521;28;20414;-45
2022/06/04 11:14:49;;;;;;;6.60;2.47;;;18.60;60.90;;;;;;5032872;28;20037;-45
2022/06/04 11:17:45;;;;;;;4.60;2.60;;;18.50;62.00;;;;;;5029424;28;20564;-45
2022/06/04 11:20:29;;;;;;;6.22;2.85;;;18.80;62.80;;;;;;5049422;28;20021;-46
2022/06/04 11:23:24;;;;;;;7.18;3.17;;;18.60;60.50;;;;;;5036087;28;20029;-46
2022/06/04 11:25:58;;;;;;;6.28;2.35;;;18.40;59.90;;;;;;5048254;28;20104;-45
2022/06/04 11:28:32;;;;;;;6.13;2.90;;;18.40;62.70;;;;;;5047282;28;20031;-46
2022/06/04 11:31:19;;;;;;;8.38;2.78;;;18.20;64.20;;;;;;5046948;28;20029;-44
2022/06/04 11:34:12;;;;;;;5.78;2.90;;;18.00;64.20;;;;;;5027680;28;20052;-44
2022/06/04 11:37:16;;;;;;;6.97;2.95;;;18.30;63.60;;;;;;5028014;28;20029;-46
2022/06/04 11:40:10;;;;;;;6.57;3.30;;;18.60;64.20;;;;;;5027028;28;20390;-47
2022/06/04 11:43:11;;;;;;;8.57;3.50;;;18.80;62.30;;;;;;5027270;28;20029;-45
2022/06/04 11:46:00;;;;;;;5.25;3.40;;;18.70;62.20;;;;;;5026928;28;20090;-44
2022/06/04 11:48:55;;;;;;;6.93;3.15;;;18.60;62.50;;;;;;5023323;28;20081;-46
2022/06/04 11:51:45;;;;;;;6.45;2.55;;;18.40;62.80;;;;;;5047244;28;20104;-45
2022/06/04 11:54:24;;;;;;;7.18;2.97;;;18.40;63.70;;;;;;5028226;28;20111;-44
2022/06/04 11:57:04;;;;;;;8.88;3.28;;;18.30;62.80;;;;;;5030404;28;20037;-45
2022/06/04 11:59:59;;;;;;;6.43;3.45;;;18.20;63.30;;;;;;5044542;28;20036;-46
2022/06/04 12:02:27;;;;;;;10.98;3.35;;;18.10;65.00;;;;;;5044634;28;20090;-47
2022/06/04 12:05:27;;;;;;;6.88;2.70;;;17.80;64.10;;;;;;5036218;28;20502;-46
2022/06/04 12:07:54;;;;;;;9.90;3.38;;;17.60;65.10;;;;;;5012944;28;20072;-44
2022/06/04 12:10:42;;;;;;;9.55;3.28;;;17.80;65.50;;;;;;5031880;28;20037;-47
2022/06/04 12:13:19;;;;;;;7.35;4.07;;;18.00;64.50;;;;;;5031860;28;20043;-45
2022/06/04 12:16:11;;;;;;;9.88;4.18;;;18.00;64.20;;;;;;5040327;28;20029;-47
2022/06/04 12:18:38;;;;;;;8.88;3.40;;;18.20;64.70;;;;;;5032741;28;20466;-45
2022/06/04 12:24:33;;;;;;;6.97;3.17;;;18.20;65.60;;;;;;5030156;28;20473;-46
2022/06/04 12:27:18;;;;;;;6.53;2.60;;;18.40;64.40;;;;;;5025664;28;20041;-46
2022/06/04 12:29:46;;;;;;;4.43;2.60;;;18.00;63.70;;;;;;5030313;28;20075;-46
2022/06/04 12:32:18;;;;;;;6.68;3.13;;;18.20;64.20;;;;;;5027896;28;20029;-48
2022/06/04 12:34:45;;;;;;;6.68;2.78;;;17.80;67.00;;;;;;5027512;28;20033;-45
2022/06/04 12:37:50;;;;;;;5.38;2.67;;;18.00;63.80;;;;;;5013329;28;20033;-49
2022/06/04 12:40:19;;;;;;;8.35;2.80;;;17.90;64.30;;;;;;5020091;28;20068;-46
2022/06/04 12:43:06;;;;;;;6.18;3.33;;;18.10;64.20;;;;;;5030519;28;20021;-46
2022/06/04 12:45:41;;;;;;;6.30;3.40;;;18.10;65.80;;;;;;5027738;28;20022;-47
2022/06/04 12:48:25;;;;;;;6.60;2.75;;;17.80;65.90;;;;;;5030751;28;20021;-45
2022/06/04 12:51:01;;;;;;;8.75;2.65;;;17.70;65.60;;;;;;5032476;28;20405;-46
2022/06/04 12:53:30;;;;;;;6.68;3.33;;;17.70;67.10;;;;;;5030696;28;20033;-46
2022/06/04 12:55:59;;;;;;;6.18;2.75;;;17.70;66.80;;;;;;5030501;28;20304;-46
2022/06/04 12:58:42;;;;;;;6.72;3.38;;;17.60;67.10;;;;;;5028442;28;20443;-44
2022/06/04 13:01:18;;;;;;;6.30;2.95;;;17.60;69.50;;;;;;5031407;28;20033;-46
2022/06/04 13:03:47;;;;;;;6.13;3.15;;;17.60;67.50;;;;;;5029550;28;20038;-45
2022/06/04 13:06:23;;;;;;;6.25;2.65;;;17.60;67.00;;;;;;5029896;28;20021;-45
2022/06/04 13:09:13;;;;;;;7.90;3.90;;;17.60;67.70;;;;;;5028253;28;20029;-47
2022/06/04 13:11:59;;;;;;;6.55;3.25;;;17.60;67.90;;;;;;5027877;28;20390;-46
2022/06/04 13:14:37;;;;;;;6.13;2.85;;;17.70;69.00;;;;;;5047268;28;20033;-48
2022/06/04 13:17:32;;;;;;;6.20;3.17;;;17.40;68.30;;;;;;5028959;28;20057;-44
2022/06/04 13:20:25;;;;;;;9.43;4.75;;;17.40;66.70;;;;;;5026001;28;20149;-47
2022/06/04 13:22:55;;;;;;;7.45;3.10;;;17.20;67.90;;;;;;5029252;28;20053;-46
2022/06/04 13:25:46;;;;;;;10.95;4.30;;;17.30;68.90;;;;;;5029872;28;20032;-47
2022/06/04 13:28:40;;;;;;;5.82;3.70;;;16.90;68.40;;;;;;5029923;28;20065;-46
2022/06/04 13:31:50;;;;;;;8.25;5.07;;;16.90;69.30;;;;;;5031352;28;20615;-45
2022/06/04 13:34:23;;;;;;;10.77;3.53;;;16.90;70.50;;;;;;5030583;28;20139;-48
2022/06/04 13:37:00;;;;;;;7.22;3.30;;;16.80;68.60;;;;;;5031374;28;20453;-45
2022/06/04 13:39:28;;;;;;;9.30;3.47;;;16.70;68.20;;;;;;5034397;28;20032;-46
2022/06/04 13:42:01;;;;;;;7.90;3.92;;;16.90;68.50;;;;;;5050987;28;20091;-46
2022/06/04 13:44:27;;;;;;;8.13;2.97;;;16.90;70.70;;;;;;5037093;28;20071;-45
2022/06/04 13:47:07;;;;;;;7.13;3.22;;;16.90;67.90;;;;;;5030271;28;20044;-44
2022/06/04 13:49:35;;;;;;;7.55;3.25;;;17.00;68.30;;;;;;5021165;28;20055;-45